Jonesville, Michigan
Current Conditions -  °F | °C
As of 10:55 PM on Sunday 23 Nov 2014 (Local Time) from KJYM Reporting Station
Moderate Rain Moderate Rain  
Wind Chill: 51°   Ceiling: 700
Heat Index: 51°   Visibility: 5mi
Dew Point: 51°   Wind: 9mph
Humidity: 100%   Direction: 140°SE
Pressure: 29.22"   Gusts: NA
Location:  41.98°N, 84.66°W
Report Text: KJYM 240355Z AUTO 14008KT 5SM RA OVC007 11/11 A2922 RMK AO2 T01060106
Loading
Personal Weather Stations






























Interactive Weather Map New forecast layout! Learn more

10-Day Weather Forecast

Advertisements
Track Severe Weather on mobile